Time;durP1;ratioP1;P1;durP2;ratioP2;P2;SDS_P1;SDS_P2;PMS_P1;PMS_P2;Temp;Humidity;BMP_temperature;BMP_pressure;BME280_temperature;BME280_humidity;BME280_pressure;Samples;Min_cycle;Max_cycle;Signal;HPM_P1;HPM_P2
2022/04/11 00:01:15;;;;;;;10.60;5.18;;;;;;;;;;4907326;29;20308;-94
2022/04/11 00:03:41;;;;;;;7.60;5.68;;;;;;;;;;4923973;29;20156;-94
2022/04/11 00:06:07;;;;;;;7.50;5.65;;;;;;;;;;4907051;29;20024;-94
2022/04/11 00:08:33;;;;;;;7.57;5.18;;;;;;;;;;4923512;29;20048;-94
2022/04/11 00:10:59;;;;;;;7.65;5.05;;;;;;;;;;4923651;29;20059;-95
2022/04/11 00:13:25;;;;;;;8.98;5.57;;;;;;;;;;4924009;29;20392;-94
2022/04/11 00:15:51;;;;;;;9.55;5.40;;;;;;;;;;4907057;29;20084;-94
2022/04/11 00:21:21;;;;;;;6.63;4.75;;;;;;;;;;4940182;29;20059;-95
2022/04/11 00:23:47;;;;;;;8.07;5.20;;;;;;;;;;4943106;29;20027;-94
2022/04/11 00:26:14;;;;;;;8.30;5.00;;;;;;;;;;4926236;29;20059;-96
2022/04/11 00:28:40;;;;;;;7.00;5.03;;;;;;;;;;4926070;29;20028;-95
2022/04/11 00:31:06;;;;;;;7.15;4.78;;;;;;;;;;4942255;29;20413;-94
2022/04/11 00:36:35;;;;;;;7.13;4.90;;;;;;;;;;4943009;29;20043;-95
2022/04/11 00:39:01;;;;;;;6.63;4.25;;;;;;;;;;4912581;29;20035;-96
2022/04/11 00:41:27;;;;;;;6.50;4.47;;;;;;;;;;4907057;29;20068;-96
2022/04/11 00:43:53;;;;;;;6.93;4.88;;;;;;;;;;4906744;29;20032;-95
2022/04/11 00:46:20;;;;;;;5.82;4.47;;;;;;;;;;4908250;29;20029;-95
2022/04/11 00:49:04;;;;;;;6.82;4.25;;;;;;;;;;4923419;29;20024;-95
2022/04/11 00:51:30;;;;;;;6.72;4.55;;;;;;;;;;4906360;29;20029;-96
2022/04/11 00:53:59;;;;;;;8.32;4.82;;;;;;;;;;4923433;29;20422;-95
2022/04/11 00:56:27;;;;;;;6.43;4.93;;;;;;;;;;4925105;29;20034;-94
2022/04/11 00:58:53;;;;;;;5.78;4.72;;;;;;;;;;4939879;29;20331;-95
2022/04/11 01:01:19;;;;;;;7.28;4.07;;;;;;;;;;4925179;29;20114;-96
2022/04/11 01:06:50;;;;;;;8.88;4.97;;;;;;;;;;4941814;29;20046;-95
2022/04/11 01:09:16;;;;;;;5.88;3.90;;;;;;;;;;4925031;29;20398;-94
2022/04/11 01:11:42;;;;;;;6.00;4.13;;;;;;;;;;4925319;29;20031;-94
2022/04/11 01:14:08;;;;;;;7.80;4.45;;;;;;;;;;4941788;29;20024;-95
2022/04/11 01:16:34;;;;;;;7.53;4.82;;;;;;;;;;4925004;29;20078;-95
2022/04/11 01:19:00;;;;;;;6.25;4.57;;;;;;;;;;4925225;29;20040;-95
2022/04/11 01:21:27;;;;;;;6.68;4.55;;;;;;;;;;4922844;29;20021;-95
2022/04/11 01:23:53;;;;;;;6.32;3.97;;;;;;;;;;4922545;29;20028;-95
2022/04/11 01:26:21;;;;;;;8.15;4.70;;;;;;;;;;4891239;29;20032;-95
2022/04/11 01:28:48;;;;;;;9.80;4.57;;;;;;;;;;4925354;29;20035;-94
2022/04/11 01:31:15;;;;;;;9.82;5.05;;;;;;;;;;4908071;29;20119;-95
2022/04/11 01:33:42;;;;;;;6.70;4.25;;;;;;;;;;4908463;29;20028;-96
2022/04/11 01:36:09;;;;;;;7.07;4.53;;;;;;;;;;4925629;29;20028;-96
2022/04/11 01:38:35;;;;;;;6.80;4.18;;;;;;;;;;4926621;29;20432;-95
2022/04/11 01:41:01;;;;;;;7.10;4.15;;;;;;;;;;4924604;29;20031;-96
2022/04/11 01:43:27;;;;;;;6.25;4.30;;;;;;;;;;4924564;29;20342;-95
2022/04/11 01:45:54;;;;;;;6.00;4.00;;;;;;;;;;4945497;29;20023;-94
2022/04/11 01:51:24;;;;;;;6.90;4.55;;;;;;;;;;4946041;29;20437;-94
2022/04/11 01:53:50;;;;;;;5.60;4.20;;;;;;;;;;4909118;29;20035;-95
2022/04/11 01:56:16;;;;;;;7.85;4.97;;;;;;;;;;4935103;29;20043;-95
2022/04/11 01:58:43;;;;;;;5.68;4.38;;;;;;;;;;4928544;29;20048;-95
2022/04/11 02:01:09;;;;;;;9.18;4.78;;;;;;;;;;4928146;29;20035;-95
2022/04/11 02:06:39;;;;;;;4.82;3.50;;;;;;;;;;4941078;29;20322;-95
2022/04/11 02:09:05;;;;;;;7.60;4.07;;;;;;;;;;4924014;29;20167;-95
2022/04/11 02:11:32;;;;;;;7.47;4.30;;;;;;;;;;4924280;29;20448;-95
2022/04/11 02:13:58;;;;;;;7.00;3.90;;;;;;;;;;4940669;29;20060;-96
2022/04/11 02:16:24;;;;;;;6.10;3.97;;;;;;;;;;4937767;29;20043;-95
2022/04/11 02:18:51;;;;;;;8.15;4.03;;;;;;;;;;4940846;29;20032;-93
2022/04/11 02:21:17;;;;;;;6.30;3.67;;;;;;;;;;4940525;29;20391;-95
2022/04/11 02:23:43;;;;;;;5.72;3.50;;;;;;;;;;4931813;29;20024;-95
2022/04/11 02:26:09;;;;;;;4.50;3.83;;;;;;;;;;4921513;29;20028;-96
2022/04/11 02:28:35;;;;;;;6.20;4.07;;;;;;;;;;4904768;29;20036;-94
2022/04/11 02:31:01;;;;;;;7.55;4.07;;;;;;;;;;4921371;29;20024;-95
2022/04/11 02:33:27;;;;;;;7.47;4.00;;;;;;;;;;4921818;29;20111;-95
2022/04/11 02:35:53;;;;;;;7.60;5.15;;;;;;;;;;4919616;29;20130;-96
2022/04/11 02:38:19;;;;;;;10.23;4.88;;;;;;;;;;4908648;29;20036;-96
2022/04/11 02:40:46;;;;;;;7.63;4.13;;;;;;;;;;4910868;29;20032;-96
2022/04/11 02:43:24;;;;;;;7.10;3.95;;;;;;;;;;4930092;29;20024;-96
2022/04/11 02:45:55;;;;;;;6.72;3.53;;;;;;;;;;4930844;29;20024;-95
2022/04/11 02:48:24;;;;;;;4.60;3.38;;;;;;;;;;4909799;29;20066;-93
2022/04/11 02:50:51;;;;;;;6.18;3.88;;;;;;;;;;4908483;29;20081;-96
2022/04/11 02:53:17;;;;;;;6.22;3.85;;;;;;;;;;4925258;29;20035;-95
2022/04/11 02:55:43;;;;;;;7.28;3.65;;;;;;;;;;4908512;29;20028;-93
2022/04/11 02:58:09;;;;;;;7.13;4.10;;;;;;;;;;4924888;29;20355;-94
2022/04/11 03:00:35;;;;;;;6.65;3.70;;;;;;;;;;4908358;29;20031;-94
2022/04/11 03:03:01;;;;;;;3.92;3.22;;;;;;;;;;4908296;29;20028;-94
2022/04/11 03:05:28;;;;;;;6.15;3.20;;;;;;;;;;4925133;29;20410;-92
2022/04/11 03:07:54;;;;;;;6.18;3.42;;;;;;;;;;4925025;29;20051;-95
2022/04/11 03:10:20;;;;;;;9.60;6.10;;;;;;;;;;4925057;29;20059;-94
2022/04/11 03:12:46;;;;;;;8.85;5.15;;;;;;;;;;4925991;29;20079;-94
2022/04/11 03:15:12;;;;;;;5.47;3.35;;;;;;;;;;4924676;29;20020;-93
2022/04/11 03:17:38;;;;;;;5.30;3.65;;;;;;;;;;4924597;29;20028;-93
2022/04/11 03:20:05;;;;;;;7.63;3.17;;;;;;;;;;4924896;29;20111;-93
2022/04/11 03:22:31;;;;;;;6.18;3.90;;;;;;;;;;4924937;29;20426;-94
2022/04/11 03:24:57;;;;;;;4.40;2.80;;;;;;;;;;4924768;29;20028;-96
2022/04/11 03:27:23;;;;;;;5.20;3.40;;;;;;;;;;4924420;29;20048;-94
2022/04/11 03:29:50;;;;;;;6.20;3.92;;;;;;;;;;4915680;29;20031;-95
2022/04/11 03:32:16;;;;;;;4.22;3.65;;;;;;;;;;4946867;29;20359;-94
2022/04/11 03:37:46;;;;;;;4.72;3.05;;;;;;;;;;4943525;29;20425;-92
2022/04/11 03:40:12;;;;;;;4.47;3.05;;;;;;;;;;4919451;29;20032;-96
2022/04/11 03:42:38;;;;;;;4.15;3.10;;;;;;;;;;4925479;29;20058;-94
2022/04/11 03:45:22;;;;;;;6.57;3.30;;;;;;;;;;4944549;23;20086;-96
2022/04/11 03:51:29;;;;;;;8.70;4.72;;;;;;;;;;4963377;28;20075;-95
2022/04/11 03:53:55;;;;;;;7.07;4.03;;;;;;;;;;4963532;29;20115;-95
2022/04/11 03:56:22;;;;;;;6.25;4.10;;;;;;;;;;4962296;29;20035;-96
2022/04/11 03:58:48;;;;;;;12.95;6.85;;;;;;;;;;4962503;29;20386;-96
2022/04/11 04:01:14;;;;;;;9.15;5.45;;;;;;;;;;4963151;29;20019;-96
2022/04/11 04:03:41;;;;;;;12.50;6.20;;;;;;;;;;4963367;29;20033;-95
2022/04/11 04:06:07;;;;;;;15.52;6.88;;;;;;;;;;4963065;29;20030;-96
2022/04/11 04:08:34;;;;;;;16.48;7.38;;;;;;;;;;4963714;29;20476;-95
2022/04/11 04:11:01;;;;;;;17.98;7.47;;;;;;;;;;4947532;29;20035;-95
2022/04/11 04:13:27;;;;;;;23.45;8.80;;;;;;;;;;4964945;29;20070;-95
2022/04/11 04:15:54;;;;;;;18.73;9.13;;;;;;;;;;4964643;29;20414;-96
2022/04/11 04:18:20;;;;;;;12.65;6.30;;;;;;;;;;4946154;29;20047;-95
2022/04/11 04:20:46;;;;;;;13.77;6.55;;;;;;;;;;4946400;29;20074;-96
2022/04/11 04:23:12;;;;;;;10.68;6.00;;;;;;;;;;4964519;29;20027;-96
2022/04/11 04:25:39;;;;;;;11.05;4.95;;;;;;;;;;4965347;29;20071;-96
2022/04/11 04:28:06;;;;;;;14.10;6.10;;;;;;;;;;4964197;29;20027;-96
2022/04/11 04:30:32;;;;;;;10.55;5.65;;;;;;;;;;4946937;29;20081;-95
2022/04/11 04:32:58;;;;;;;9.50;4.97;;;;;;;;;;4964308;29;20115;-96
2022/04/11 04:35:24;;;;;;;6.07;3.35;;;;;;;;;;4964013;29;20111;-96
2022/04/11 04:37:52;;;;;;;13.18;4.28;;;;;;;;;;4963447;29;20015;-95
2022/04/11 04:40:18;;;;;;;8.00;4.10;;;;;;;;;;4963445;29;20295;-96
2022/04/11 04:42:44;;;;;;;7.18;3.70;;;;;;;;;;4963197;29;20019;-96
2022/04/11 04:45:10;;;;;;;7.82;3.60;;;;;;;;;;4962043;29;20051;-94
2022/04/11 04:47:37;;;;;;;5.60;3.03;;;;;;;;;;4962338;29;20027;-95
2022/04/11 04:50:03;;;;;;;5.63;3.22;;;;;;;;;;4962331;29;20110;-96
2022/04/11 04:52:29;;;;;;;6.65;3.40;;;;;;;;;;4961629;29;20042;-95
2022/04/11 04:54:55;;;;;;;6.07;3.90;;;;;;;;;;4961860;29;20039;-95
2022/04/11 04:57:21;;;;;;;8.82;4.30;;;;;;;;;;4962571;29;20027;-95
2022/04/11 04:59:47;;;;;;;8.88;4.53;;;;;;;;;;4945685;29;20421;-96
2022/04/11 05:02:13;;;;;;;8.30;4.47;;;;;;;;;;4961246;28;20059;-95
2022/04/11 05:04:39;;;;;;;5.35;4.00;;;;;;;;;;4961857;29;20082;-95
2022/04/11 05:07:06;;;;;;;4.93;3.42;;;;;;;;;;4961315;29;20019;-96
2022/04/11 05:09:32;;;;;;;6.75;3.30;;;;;;;;;;4961599;29;20023;-96
2022/04/11 05:11:58;;;;;;;6.07;3.30;;;;;;;;;;4943425;29;20066;-95
2022/04/11 05:14:25;;;;;;;6.35;3.80;;;;;;;;;;4961061;29;20031;-96
2022/04/11 05:16:51;;;;;;;6.90;3.95;;;;;;;;;;4961045;29;20031;-95
2022/04/11 05:19:17;;;;;;;5.13;3.08;;;;;;;;;;4960752;29;20402;-95
2022/04/11 05:21:43;;;;;;;6.47;3.65;;;;;;;;;;4962234;29;20110;-95
2022/04/11 05:24:10;;;;;;;6.00;3.72;;;;;;;;;;4961984;29;20019;-96
2022/04/11 05:26:36;;;;;;;7.90;3.78;;;;;;;;;;4963457;29;20023;-96
2022/04/11 05:29:03;;;;;;;6.07;3.10;;;;;;;;;;4944349;29;20027;-96
2022/04/11 05:31:29;;;;;;;5.75;3.38;;;;;;;;;;4945546;29;20031;-96
2022/04/11 05:33:55;;;;;;;4.13;3.15;;;;;;;;;;4945390;29;20042;-96
2022/04/11 05:36:21;;;;;;;8.30;4.00;;;;;;;;;;4961540;29;20164;-95
2022/04/11 05:38:48;;;;;;;7.55;4.10;;;;;;;;;;4944117;29;20345;-95
2022/04/11 05:41:14;;;;;;;4.55;3.53;;;;;;;;;;4944244;29;20089;-94
2022/04/11 05:43:41;;;;;;;5.13;3.58;;;;;;;;;;4961185;29;20030;-96
2022/04/11 05:46:07;;;;;;;6.38;3.85;;;;;;;;;;4960263;29;20043;-95
2022/04/11 05:48:35;;;;;;;6.78;3.33;;;;;;;;;;4960164;29;20067;-96
2022/04/11 05:51:01;;;;;;;5.32;3.58;;;;;;;;;;4959972;29;20032;-95
2022/04/11 05:53:28;;;;;;;6.10;3.22;;;;;;;;;;4942437;29;20373;-95
2022/04/11 05:55:54;;;;;;;5.15;3.70;;;;;;;;;;4960285;29;20313;-96
2022/04/11 05:58:20;;;;;;;5.95;4.40;;;;;;;;;;4959974;29;20019;-95
2022/04/11 06:00:46;;;;;;;7.68;4.38;;;;;;;;;;4943195;29;20026;-94
2022/04/11 06:03:12;;;;;;;6.15;2.88;;;;;;;;;;4959820;29;20027;-95
2022/04/11 06:05:38;;;;;;;5.10;2.88;;;;;;;;;;4959730;29;20034;-96
2022/04/11 06:08:04;;;;;;;5.90;2.63;;;;;;;;;;4961483;29;20061;-96
2022/04/11 06:10:30;;;;;;;6.18;3.20;;;;;;;;;;4960789;29;20314;-96
2022/04/11 06:12:57;;;;;;;5.90;3.00;;;;;;;;;;4961071;28;20038;-96
2022/04/11 06:15:23;;;;;;;5.82;3.15;;;;;;;;;;4961825;29;20027;-96
2022/04/11 06:17:49;;;;;;;5.75;2.60;;;;;;;;;;4961596;29;20027;-96
2022/04/11 06:20:16;;;;;;;4.60;2.58;;;;;;;;;;4944834;29;20031;-96
2022/04/11 06:22:43;;;;;;;6.82;2.47;;;;;;;;;;4961017;29;20098;-96
2022/04/11 06:25:09;;;;;;;3.85;2.40;;;;;;;;;;4943190;29;20322;-95
2022/04/11 06:27:37;;;;;;;5.32;2.60;;;;;;;;;;4942456;29;20027;-95
2022/04/11 06:30:04;;;;;;;7.35;3.42;;;;;;;;;;4959995;29;20031;-95
2022/04/11 06:32:31;;;;;;;6.35;2.90;;;;;;;;;;4942475;29;20035;-94
2022/04/11 06:34:57;;;;;;;17.02;8.55;;;;;;;;;;4959580;29;20028;-95
2022/04/11 06:37:24;;;;;;;31.38;16.20;;;;;;;;;;4942769;29;20059;-95
2022/04/11 06:39:50;;;;;;;12.80;7.90;;;;;;;;;;4959077;29;20023;-95
2022/04/11 06:42:20;;;;;;;9.38;5.90;;;;;;;;;;4961148;29;20023;-96
2022/04/11 06:44:46;;;;;;;9.27;5.30;;;;;;;;;;4960618;29;20402;-95
2022/04/11 06:47:13;;;;;;;12.18;4.70;;;;;;;;;;4953417;29;20036;-96
2022/04/11 06:49:39;;;;;;;5.95;3.38;;;;;;;;;;4947698;29;20039;-96
2022/04/11 06:52:06;;;;;;;5.95;3.72;;;;;;;;;;4949963;29;20066;-96
2022/04/11 06:54:32;;;;;;;5.35;3.25;;;;;;;;;;4956159;29;20074;-95
2022/04/11 06:56:58;;;;;;;6.38;3.78;;;;;;;;;;4961300;29;20059;-96
2022/04/11 06:59:25;;;;;;;7.45;4.00;;;;;;;;;;4959642;29;20050;-94
2022/04/11 07:01:54;;;;;;;8.10;3.40;;;;;;;;;;4959115;29;20023;-95
2022/04/11 07:04:20;;;;;;;5.78;3.53;;;;;;;;;;4960538;29;20075;-96
2022/04/11 07:06:47;;;;;;;7.05;4.35;;;;;;;;;;4960720;29;20023;-96
2022/04/11 07:09:13;;;;;;;8.27;3.55;;;;;;;;;;4959351;29;20342;-94
2022/04/11 07:11:39;;;;;;;6.10;3.80;;;;;;;;;;4959067;29;20074;-95
2022/04/11 07:14:06;;;;;;;7.70;3.28;;;;;;;;;;4942090;29;20062;-95
2022/04/11 07:16:32;;;;;;;7.43;3.03;;;;;;;;;;4958876;29;20035;-96
2022/04/11 07:18:58;;;;;;;4.53;2.88;;;;;;;;;;4958867;29;20027;-93
2022/04/11 07:21:24;;;;;;;4.75;2.65;;;;;;;;;;4958964;29;20023;-94
2022/04/11 07:23:50;;;;;;;5.60;2.67;;;;;;;;;;4942307;29;20090;-95
2022/04/11 07:26:16;;;;;;;5.38;2.83;;;;;;;;;;4944557;29;20027;-94
2022/04/11 07:28:43;;;;;;;7.30;2.80;;;;;;;;;;4962791;29;20027;-96
2022/04/11 07:31:09;;;;;;;7.35;3.30;;;;;;;;;;4962236;29;20441;-93
2022/04/11 07:33:35;;;;;;;6.55;3.50;;;;;;;;;;4962603;29;20083;-94
2022/04/11 07:36:01;;;;;;;5.68;3.10;;;;;;;;;;4945689;29;20028;-94
2022/04/11 07:38:27;;;;;;;8.52;3.40;;;;;;;;;;4945538;29;20024;-95
2022/04/11 07:40:53;;;;;;;4.43;2.80;;;;;;;;;;4945426;29;20031;-95
2022/04/11 07:43:20;;;;;;;5.03;2.60;;;;;;;;;;4962079;29;20402;-95
2022/04/11 07:45:46;;;;;;;5.10;3.40;;;;;;;;;;4944623;29;20333;-95
2022/04/11 07:48:12;;;;;;;6.25;3.05;;;;;;;;;;4956141;29;20031;-94
2022/04/11 07:50:38;;;;;;;9.10;3.17;;;;;;;;;;4937187;29;20027;-94
2022/04/11 07:53:04;;;;;;;5.50;2.65;;;;;;;;;;4952265;29;20040;-94
2022/04/11 07:55:31;;;;;;;5.40;3.05;;;;;;;;;;4962114;29;20023;-96
2022/04/11 07:57:57;;;;;;;6.07;3.25;;;;;;;;;;4941555;29;20028;-94
2022/04/11 08:00:23;;;;;;;6.00;2.80;;;;;;;;;;4963390;29;20023;-93
2022/04/11 08:02:51;;;;;;;5.90;2.83;;;;;;;;;;4945666;29;20024;-96
2022/04/11 08:05:19;;;;;;;6.25;2.85;;;;;;;;;;4962573;29;20050;-94
2022/04/11 08:07:45;;;;;;;3.03;1.80;;;;;;;;;;4962128;29;20027;-96
2022/04/11 08:10:11;;;;;;;3.90;2.17;;;;;;;;;;4945550;29;20119;-96
2022/04/11 08:12:38;;;;;;;4.32;2.20;;;;;;;;;;4963622;29;20039;-96
2022/04/11 08:15:04;;;;;;;5.78;2.25;;;;;;;;;;4961874;29;20122;-95
2022/04/11 08:17:30;;;;;;;4.60;2.20;;;;;;;;;;4962030;29;20034;-95
2022/04/11 08:19:56;;;;;;;3.80;2.00;;;;;;;;;;4944946;29;20110;-96
2022/04/11 08:22:22;;;;;;;4.32;2.03;;;;;;;;;;4961739;29;20030;-94
2022/04/11 08:24:48;;;;;;;5.22;2.63;;;;;;;;;;4963510;29;20023;-95
2022/04/11 08:27:15;;;;;;;4.35;2.20;;;;;;;;;;4961914;29;20031;-96
2022/04/11 08:29:43;;;;;;;5.43;2.38;;;;;;;;;;4945648;29;20418;-95
2022/04/11 08:32:09;;;;;;;5.32;2.33;;;;;;;;;;4959343;29;20039;-95
2022/04/11 08:34:35;;;;;;;4.65;2.17;;;;;;;;;;4940097;29;20117;-96
2022/04/11 08:37:02;;;;;;;7.10;2.47;;;;;;;;;;4962460;28;20020;-96
2022/04/11 08:39:28;;;;;;;4.18;2.17;;;;;;;;;;4943480;29;20460;-96
2022/04/11 08:41:58;;;;;;;5.20;2.60;;;;;;;;;;4948191;29;20047;-96
2022/04/11 08:44:25;;;;;;;6.05;2.40;;;;;;;;;;4939524;29;20034;-96
2022/04/11 08:46:52;;;;;;;5.57;2.60;;;;;;;;;;4944675;29;20051;-95
2022/04/11 08:49:18;;;;;;;5.13;3.13;;;;;;;;;;4927002;29;20058;-96
2022/04/11 08:51:45;;;;;;;5.57;3.08;;;;;;;;;;4945450;29;20028;-95
2022/04/11 08:54:12;;;;;;;6.57;2.83;;;;;;;;;;4947236;29;20442;-96
2022/04/11 08:56:39;;;;;;;7.47;3.15;;;;;;;;;;4949501;29;20430;-96
2022/04/11 08:59:06;;;;;;;5.60;3.00;;;;;;;;;;4949246;29;20040;-95
2022/04/11 09:01:34;;;;;;;6.95;3.85;;;;;;;;;;4948165;29;20099;-96
2022/04/11 09:04:01;;;;;;;6.05;3.10;;;;;;;;;;4928377;29;20063;-96
2022/04/11 09:06:31;;;;;;;5.15;3.47;;;;;;;;;;4927295;29;20062;-96
2022/04/11 09:09:02;;;;;;;5.68;2.70;;;;;;;;;;4944513;29;20024;-95
2022/04/11 09:11:39;;;;;;;4.30;2.00;;;;;;;;;;4944715;29;20051;-95
2022/04/11 09:14:06;;;;;;;3.50;2.15;;;;;;;;;;4944005;29;20039;-96
2022/04/11 09:16:51;;;;;;;6.38;2.75;;;;;;;;;;4944015;29;20068;-96
2022/04/11 09:19:27;;;;;;;5.82;2.60;;;;;;;;;;4944547;29;20083;-95
2022/04/11 09:21:54;;;;;;;6.78;3.10;;;;;;;;;;4946536;29;20016;-96
2022/04/11 09:24:21;;;;;;;4.40;1.90;;;;;;;;;;4946433;29;20027;-95
2022/04/11 09:26:48;;;;;;;6.80;2.70;;;;;;;;;;4950928;29;20067;-96
2022/04/11 09:29:17;;;;;;;4.43;2.30;;;;;;;;;;4944678;29;20024;-96
2022/04/11 09:31:43;;;;;;;4.82;1.80;;;;;;;;;;4943427;29;20034;-96
2022/04/11 09:34:16;;;;;;;4.78;1.88;;;;;;;;;;4944418;29;20051;-95
2022/04/11 09:36:44;;;;;;;2.97;2.20;;;;;;;;;;4927245;29;20043;-95
2022/04/11 09:39:10;;;;;;;3.50;2.00;;;;;;;;;;4944021;29;20027;-96
2022/04/11 09:41:41;;;;;;;4.47;2.10;;;;;;;;;;4943350;29;20110;-96
2022/04/11 09:44:26;;;;;;;3.35;2.15;;;;;;;;;;4928028;29;20035;-95
2022/04/11 09:46:55;;;;;;;4.45;1.90;;;;;;;;;;4943894;29;20052;-95
2022/04/11 09:49:22;;;;;;;2.22;1.70;;;;;;;;;;4943257;29;20038;-96
2022/04/11 09:52:08;;;;;;;6.72;2.00;;;;;;;;;;4943601;29;20027;-96
2022/04/11 09:54:35;;;;;;;3.53;1.73;;;;;;;;;;4943144;29;20032;-95
2022/04/11 09:57:01;;;;;;;3.20;1.70;;;;;;;;;;4909658;29;20131;-96
2022/04/11 09:59:28;;;;;;;4.85;2.05;;;;;;;;;;4941841;29;20048;-96
2022/04/11 10:01:56;;;;;;;5.53;3.10;;;;;;;;;;4941932;29;20052;-94
2022/04/11 10:04:22;;;;;;;9.80;4.72;;;;;;;;;;4924544;29;20137;-95
2022/04/11 10:06:49;;;;;;;9.02;3.90;;;;;;;;;;4940792;29;20032;-92
2022/04/11 10:09:15;;;;;;;14.63;5.90;;;;;;;;;;4941453;29;20024;-93
2022/04/11 10:11:42;;;;;;;6.95;3.38;;;;;;;;;;5027184;23;20043;-95
2022/04/11 10:14:12;;;;;;;3.28;2.30;;;;;;;;;;4924283;29;20110;-95
2022/04/11 10:16:43;;;;;;;5.43;3.22;;;;;;;;;;4940485;29;20028;-94
2022/04/11 10:19:12;;;;;;;3.30;1.55;;;;;;;;;;4940583;29;20114;-94
2022/04/11 10:21:43;;;;;;;3.13;1.50;;;;;;;;;;4923783;29;20058;-95
2022/04/11 10:24:39;;;;;;;3.75;1.60;;;;;;;;;;4940417;29;20024;-94
2022/04/11 10:27:19;;;;;;;7.28;1.50;;;;;;;;;;4848164;29;20045;-95
2022/04/11 10:29:51;;;;;;;6.53;2.10;;;;;;;;;;4864657;29;20460;-95
2022/04/11 10:32:20;;;;;;;3.28;1.70;;;;;;;;;;4875024;29;20037;-96
2022/04/11 10:34:56;;;;;;;3.45;2.15;;;;;;;;;;4865776;29;20040;-91
2022/04/11 10:37:26;;;;;;;2.40;1.33;;;;;;;;;;4863562;29;20428;-92
2022/04/11 10:39:53;;;;;;;4.15;1.58;;;;;;;;;;4858018;29;20078;-92
2022/04/11 10:42:21;;;;;;;3.33;1.60;;;;;;;;;;4845316;29;20044;-91
2022/04/11 10:44:51;;;;;;;4.90;2.30;;;;;;;;;;4845062;29;20030;-91
2022/04/11 10:47:17;;;;;;;4.00;1.73;;;;;;;;;;4845032;29;20456;-92
2022/04/11 10:49:45;;;;;;;2.65;1.80;;;;;;;;;;4829757;29;20053;-92
2022/04/11 10:52:33;;;;;;;3.13;1.65;;;;;;;;;;4845086;29;20034;-92
2022/04/11 10:55:07;;;;;;;2.50;1.63;;;;;;;;;;4845129;29;20135;-92
2022/04/11 10:57:43;;;;;;;4.47;2.30;;;;;;;;;;4845049;29;20425;-92
2022/04/11 11:00:10;;;;;;;3.78;2.42;;;;;;;;;;4844920;29;20102;-93
2022/04/11 11:03:00;;;;;;;4.53;1.80;;;;;;;;;;4860490;29;20040;-92
2022/04/11 11:05:39;;;;;;;11.50;4.68;;;;;;;;;;4924108;29;20296;-92
2022/04/11 11:08:17;;;;;;;4.22;2.65;;;;;;;;;;4920954;29;20028;-93
2022/04/11 11:10:44;;;;;;;9.68;6.20;;;;;;;;;;4923149;29;20063;-93
2022/04/11 11:13:32;;;;;;;5.65;3.42;;;;;;;;;;4923512;29;20434;-93
2022/04/11 11:15:58;;;;;;;11.00;6.78;;;;;;;;;;4920989;29;20016;-93
2022/04/11 11:18:25;;;;;;;5.72;3.78;;;;;;;;;;4923311;29;20060;-92
2022/04/11 11:20:57;;;;;;;6.63;2.50;;;;;;;;;;4923446;29;20016;-93
2022/04/11 11:23:31;;;;;;;3.17;2.10;;;;;;;;;;4924164;29;20024;-92
2022/04/11 11:26:17;;;;;;;5.68;2.50;;;;;;;;;;4924719;29;20028;-91
2022/04/11 11:28:44;;;;;;;2.85;1.40;;;;;;;;;;4924595;29;20035;-91
2022/04/11 11:31:10;;;;;;;2.47;1.27;;;;;;;;;;4924460;29;20028;-93
2022/04/11 11:33:37;;;;;;;9.50;1.80;;;;;;;;;;4924043;29;20036;-92
2022/04/11 11:36:04;;;;;;;4.82;1.75;;;;;;;;;;4924280;29;20063;-92
2022/04/11 11:38:31;;;;;;;7.68;3.95;;;;;;;;;;4907683;29;20039;-93
2022/04/11 11:41:00;;;;;;;3.15;1.10;;;;;;;;;;4924447;29;20036;-92
2022/04/11 11:43:28;;;;;;;3.17;1.20;;;;;;;;;;4924144;29;20096;-92
2022/04/11 11:45:58;;;;;;;4.35;2.50;;;;;;;;;;4924092;29;20028;-92
2022/04/11 11:48:25;;;;;;;3.63;1.20;;;;;;;;;;4907415;29;20035;-93
2022/04/11 11:50:52;;;;;;;2.22;0.82;;;;;;;;;;4907382;29;20051;-92
2022/04/11 11:53:18;;;;;;;1.85;1.17;;;;;;;;;;4907313;29;20335;-92
2022/04/11 11:55:55;;;;;;;2.42;1.17;;;;;;;;;;4924045;29;20036;-91
2022/04/11 11:58:21;;;;;;;3.75;0.98;;;;;;;;;;4924009;29;20048;-92
2022/04/11 12:00:50;;;;;;;11.13;5.13;;;;;;;;;;4923671;29;20028;-93
2022/04/11 12:06:02;;;;;;;2.20;1.67;;;;;;;;;;4923957;29;20426;-91
2022/04/11 12:08:30;;;;;;;3.95;1.73;;;;;;;;;;4923615;29;20036;-92
2022/04/11 12:10:58;;;;;;;5.20;2.60;;;;;;;;;;4906684;29;20040;-91
2022/04/11 12:13:26;;;;;;;7.45;1.63;;;;;;;;;;4907378;29;20036;-91
2022/04/11 12:15:52;;;;;;;3.72;1.30;;;;;;;;;;4923832;29;20028;-92
2022/04/11 12:18:18;;;;;;;3.05;1.23;;;;;;;;;;4906978;29;20032;-91
2022/04/11 12:20:45;;;;;;;3.88;1.20;;;;;;;;;;4923669;29;20040;-92
2022/04/11 12:23:12;;;;;;;2.08;1.08;;;;;;;;;;4923557;29;20025;-92
2022/04/11 12:25:40;;;;;;;3.45;1.05;;;;;;;;;;4923387;29;20076;-92
2022/04/11 12:28:17;;;;;;;4.75;1.95;;;;;;;;;;4923337;29;20319;-92
2022/04/11 12:30:48;;;;;;;13.73;6.47;;;;;;;;;;4923572;29;20027;-91
2022/04/11 12:33:30;;;;;;;8.17;3.13;;;;;;;;;;4923545;29;20024;-92
2022/04/11 12:36:09;;;;;;;8.25;2.13;;;;;;;;;;4923529;29;20071;-91
2022/04/11 12:38:46;;;;;;;7.50;2.63;;;;;;;;;;4923061;29;20028;-92
2022/04/11 12:41:31;;;;;;;4.97;1.70;;;;;;;;;;4923048;29;20038;-92
2022/04/11 12:44:01;;;;;;;11.57;4.55;;;;;;;;;;4923194;29;20020;-92
2022/04/11 12:46:27;;;;;;;10.40;4.82;;;;;;;;;;4923000;29;20051;-93
2022/04/11 12:48:57;;;;;;;10.95;4.05;;;;;;;;;;4922757;29;20020;-92
2022/04/11 12:51:23;;;;;;;5.47;2.75;;;;;;;;;;4906258;29;20039;-91
2022/04/11 12:53:49;;;;;;;9.27;5.10;;;;;;;;;;4923639;29;20438;-95
2022/04/11 12:56:15;;;;;;;3.97;1.40;;;;;;;;;;4906180;29;20060;-92
2022/04/11 12:58:42;;;;;;;4.30;1.95;;;;;;;;;;4906018;29;20028;-92
2022/04/11 13:01:08;;;;;;;5.68;1.70;;;;;;;;;;4905776;29;20036;-91
2022/04/11 13:03:34;;;;;;;3.67;1.77;;;;;;;;;;4906009;29;20419;-92
2022/04/11 13:06:02;;;;;;;2.10;1.30;;;;;;;;;;4922688;29;20501;-92
2022/04/11 13:08:30;;;;;;;2.85;1.10;;;;;;;;;;4922472;29;20036;-92
2022/04/11 13:10:58;;;;;;;11.23;1.65;;;;;;;;;;4922372;29;20043;-91
2022/04/11 13:13:26;;;;;;;10.82;4.93;;;;;;;;;;4922721;29;20040;-92
2022/04/11 13:18:37;;;;;;;9.07;3.90;;;;;;;;;;4922622;29;20050;-92
2022/04/11 13:21:03;;;;;;;3.65;1.08;;;;;;;;;;4922621;29;20044;-91
2022/04/11 13:23:29;;;;;;;7.72;3.53;;;;;;;;;;4921680;29;20397;-92
2022/04/11 13:25:55;;;;;;;17.95;7.20;;;;;;;;;;4922313;29;20099;-92
2022/04/11 13:28:22;;;;;;;19.67;7.25;;;;;;;;;;4922146;29;20407;-93
2022/04/11 13:30:48;;;;;;;16.27;6.93;;;;;;;;;;4922330;29;20071;-92
2022/04/11 13:33:18;;;;;;;10.80;4.65;;;;;;;;;;4922111;29;20075;-92
2022/04/11 13:35:44;;;;;;;11.90;6.13;;;;;;;;;;4922208;29;20028;-92
2022/04/11 13:38:11;;;;;;;8.05;3.75;;;;;;;;;;4921683;29;20411;-92
2022/04/11 13:40:37;;;;;;;5.10;2.65;;;;;;;;;;4904683;29;20055;-92
2022/04/11 13:43:03;;;;;;;5.53;1.67;;;;;;;;;;4904127;29;20107;-92
2022/04/11 13:45:29;;;;;;;4.53;1.65;;;;;;;;;;4904598;29;20058;-92
2022/04/11 13:47:56;;;;;;;5.18;1.88;;;;;;;;;;4902303;29;20028;-92
2022/04/11 13:50:22;;;;;;;4.68;1.50;;;;;;;;;;4904320;29;20038;-91
2022/04/11 13:52:48;;;;;;;4.18;2.15;;;;;;;;;;4921690;29;20024;-90
2022/04/11 13:55:14;;;;;;;4.65;2.63;;;;;;;;;;4921963;29;20020;-91
2022/04/11 13:57:40;;;;;;;4.97;1.85;;;;;;;;;;4905148;29;20351;-91
2022/04/11 14:00:06;;;;;;;12.68;3.10;;;;;;;;;;4921766;29;20039;-91
2022/04/11 14:02:33;;;;;;;14.10;5.80;;;;;;;;;;4921614;29;20423;-92
2022/04/11 14:04:59;;;;;;;13.10;5.05;;;;;;;;;;4904950;29;20407;-92
2022/04/11 14:07:25;;;;;;;15.85;5.93;;;;;;;;;;4921710;29;20442;-91
2022/04/11 14:09:51;;;;;;;22.20;9.60;;;;;;;;;;4921629;29;20048;-92
2022/04/11 14:12:17;;;;;;;17.45;6.80;;;;;;;;;;4921527;29;20052;-92
2022/04/11 14:14:43;;;;;;;88.20;38.08;;;;;;;;;;4921534;29;20056;-91
2022/04/11 14:17:09;;;;;;;175.05;77.20;;;;;;;;;;4904722;29;20040;-92
2022/04/11 14:19:35;;;;;;;159.82;66.68;;;;;;;;;;4904875;29;20551;-92
2022/04/11 14:22:01;;;;;;;66.05;30.70;;;;;;;;;;4921595;29;20020;-91
2022/04/11 14:24:27;;;;;;;58.33;28.33;;;;;;;;;;4921349;29;20072;-92
2022/04/11 14:26:53;;;;;;;18.27;13.35;;;;;;;;;;4904911;29;20032;-92
2022/04/11 14:29:19;;;;;;;10.68;4.43;;;;;;;;;;4904966;29;20035;-91
2022/04/11 14:31:45;;;;;;;44.17;15.10;;;;;;;;;;4920895;29;20466;-91
2022/04/11 14:34:11;;;;;;;6.88;2.60;;;;;;;;;;4921334;29;20036;-92
2022/04/11 14:36:38;;;;;;;7.20;5.30;;;;;;;;;;4904534;29;20032;-90
2022/04/11 14:39:04;;;;;;;3.28;2.17;;;;;;;;;;4921334;29;20028;-91
2022/04/11 14:41:30;;;;;;;6.45;1.55;;;;;;;;;;4921179;29;20036;-91
2022/04/11 14:43:56;;;;;;;3.33;1.50;;;;;;;;;;4921273;29;20372;-90
2022/04/11 14:46:22;;;;;;;6.70;1.55;;;;;;;;;;4904707;29;20067;-92
2022/04/11 14:48:49;;;;;;;2.60;1.50;;;;;;;;;;4921166;29;20056;-91
2022/04/11 14:51:16;;;;;;;5.25;2.70;;;;;;;;;;4921263;29;20032;-92
2022/04/11 14:53:43;;;;;;;3.17;1.60;;;;;;;;;;4920781;29;20092;-92
2022/04/11 14:56:09;;;;;;;3.67;1.67;;;;;;;;;;4921331;29;20036;-91
2022/04/11 14:58:35;;;;;;;4.57;1.75;;;;;;;;;;4904422;29;20063;-91
2022/04/11 15:01:01;;;;;;;3.47;1.50;;;;;;;;;;4921011;29;20028;-91
2022/04/11 15:03:28;;;;;;;4.13;1.67;;;;;;;;;;4904318;29;20024;-92
2022/04/11 15:05:54;;;;;;;2.25;1.50;;;;;;;;;;4921303;29;20038;-92
2022/04/11 15:08:20;;;;;;;2.80;1.42;;;;;;;;;;4904405;29;20415;-91
2022/04/11 15:10:46;;;;;;;3.85;1.52;;;;;;;;;;4904107;29;20067;-91